sensor_id;sensor_type;location;lat;lon;timestamp;temperature;humidity
31597;DHT22;18201;50.978;7.034;2022-08-01T00:00:41;19.40;99.90
31597;DHT22;18201;50.978;7.034;2022-08-01T00:01:42;19.40;99.90
31597;DHT22;18201;50.978;7.034;2022-08-01T00:02:44;19.40;99.90
31597;DHT22;18201;50.978;7.034;2022-08-01T00:03:45;19.40;99.90
31597;DHT22;18201;50.978;7.034;2022-08-01T00:04:47;19.40;99.90
31597;DHT22;18201;50.978;7.034;2022-08-01T00:05:51;19.40;99.90
31597;DHT22;18201;50.978;7.034;2022-08-01T00:06:58;19.40;99.90
31597;DHT22;18201;50.978;7.034;2022-08-01T00:07:59;19.50;99.90
31597;DHT22;18201;50.978;7.034;2022-08-01T00:09:00;19.40;99.90
31597;DHT22;18201;50.978;7.034;2022-08-01T00:10:03;19.40;99.90
31597;DHT22;18201;50.978;7.034;2022-08-01T00:11:09;19.40;99.90
31597;DHT22;18201;50.978;7.034;2022-08-01T00:12:11;19.40;99.90
31597;DHT22;18201;50.978;7.034;2022-08-01T00:13:12;19.40;99.90
31597;DHT22;18201;50.978;7.034;2022-08-01T00:14:15;19.40;99.90
31597;DHT22;18201;50.978;7.034;2022-08-01T00:15:16;19.50;99.90
31597;DHT22;18201;50.978;7.034;2022-08-01T00:16:18;19.60;99.90
31597;DHT22;18201;50.978;7.034;2022-08-01T00:17:19;19.50;99.90
31597;DHT22;18201;50.978;7.034;2022-08-01T00:18:21;19.50;99.90
31597;DHT22;18201;50.978;7.034;2022-08-01T00:19:22;19.50;99.90
31597;DHT22;18201;50.978;7.034;2022-08-01T00:20:24;19.50;99.90
31597;DHT22;18201;50.978;7.034;2022-08-01T00:21:25;19.40;99.90
31597;DHT22;18201;50.978;7.034;2022-08-01T00:22:27;19.50;99.90
31597;DHT22;18201;50.978;7.034;2022-08-01T00:23:28;19.40;99.90
31597;DHT22;18201;50.978;7.034;2022-08-01T00:24:30;19.40;99.90
31597;DHT22;18201;50.978;7.034;2022-08-01T00:25:32;19.30;99.90
31597;DHT22;18201;50.978;7.034;2022-08-01T00:26:32;19.30;99.90
31597;DHT22;18201;50.978;7.034;2022-08-01T00:27:34;19.30;99.90
31597;DHT22;18201;50.978;7.034;2022-08-01T00:28:35;19.30;99.90
31597;DHT22;18201;50.978;7.034;2022-08-01T00:29:38;19.30;99.90
31597;DHT22;18201;50.978;7.034;2022-08-01T00:30:41;19.30;99.90
31597;DHT22;18201;50.978;7.034;2022-08-01T00:31:42;19.20;99.90
31597;DHT22;18201;50.978;7.034;2022-08-01T00:32:44;19.20;99.90
31597;DHT22;18201;50.978;7.034;2022-08-01T00:33:45;19.20;99.90
31597;DHT22;18201;50.978;7.034;2022-08-01T00:34:47;19.20;99.90
31597;DHT22;18201;50.978;7.034;2022-08-01T00:35:47;19.20;99.90
31597;DHT22;18201;50.978;7.034;2022-08-01T00:36:49;19.10;99.90
31597;DHT22;18201;50.978;7.034;2022-08-01T00:37:51;19.10;99.90
31597;DHT22;18201;50.978;7.034;2022-08-01T00:38:53;19.10;99.90
31597;DHT22;18201;50.978;7.034;2022-08-01T00:39:55;19.10;99.90
31597;DHT22;18201;50.978;7.034;2022-08-01T00:40:55;19.00;99.90
31597;DHT22;18201;50.978;7.034;2022-08-01T00:41:57;19.00;99.90
31597;DHT22;18201;50.978;7.034;2022-08-01T00:42:58;19.00;99.90
31597;DHT22;18201;50.978;7.034;2022-08-01T00:44:03;19.00;99.90
31597;DHT22;18201;50.978;7.034;2022-08-01T00:45:07;18.90;99.90
31597;DHT22;18201;50.978;7.034;2022-08-01T00:46:09;18.90;99.90
31597;DHT22;18201;50.978;7.034;2022-08-01T00:47:10;18.90;99.90
31597;DHT22;18201;50.978;7.034;2022-08-01T00:48:12;18.90;99.90
31597;DHT22;18201;50.978;7.034;2022-08-01T00:49:13;18.90;99.90
31597;DHT22;18201;50.978;7.034;2022-08-01T00:50:15;18.90;99.90
31597;DHT22;18201;50.978;7.034;2022-08-01T00:51:17;18.90;99.90
31597;DHT22;18201;50.978;7.034;2022-08-01T00:52:19;18.80;99.90
31597;DHT22;18201;50.978;7.034;2022-08-01T00:53:22;18.80;99.90
31597;DHT22;18201;50.978;7.034;2022-08-01T00:54:27;18.90;99.90
31597;DHT22;18201;50.978;7.034;2022-08-01T00:55:29;18.90;99.90
31597;DHT22;18201;50.978;7.034;2022-08-01T00:56:32;18.80;99.90
31597;DHT22;18201;50.978;7.034;2022-08-01T00:57:33;18.80;99.90
31597;DHT22;18201;50.978;7.034;2022-08-01T00:58:35;18.80;99.90
31597;DHT22;18201;50.978;7.034;2022-08-01T00:59:37;18.80;99.90
31597;DHT22;18201;50.978;7.034;2022-08-01T01:00:42;18.80;99.90
31597;DHT22;18201;50.978;7.034;2022-08-01T01:01:43;18.80;99.90
31597;DHT22;18201;50.978;7.034;2022-08-01T01:02:45;18.80;99.90
31597;DHT22;18201;50.978;7.034;2022-08-01T01:03:46;18.80;99.90
31597;DHT22;18201;50.978;7.034;2022-08-01T01:04:48;18.80;99.90
31597;DHT22;18201;50.978;7.034;2022-08-01T01:05:58;18.80;99.90
31597;DHT22;18201;50.978;7.034;2022-08-01T01:07:13;18.80;99.90
31597;DHT22;18201;50.978;7.034;2022-08-01T01:08:21;18.80;99.90
31597;DHT22;18201;50.978;7.034;2022-08-01T01:09:33;18.80;99.90
31597;DHT22;18201;50.978;7.034;2022-08-01T01:10:43;18.80;99.90
31597;DHT22;18201;50.978;7.034;2022-08-01T01:11:51;18.70;99.90
31597;DHT22;18201;50.978;7.034;2022-08-01T01:13:00;18.80;99.90
31597;DHT22;18201;50.978;7.034;2022-08-01T01:14:08;18.70;99.90
31597;DHT22;18201;50.978;7.034;2022-08-01T01:15:16;18.80;99.90
31597;DHT22;18201;50.978;7.034;2022-08-01T01:16:20;18.80;99.90
31597;DHT22;18201;50.978;7.034;2022-08-01T01:17:27;18.80;99.90
31597;DHT22;18201;50.978;7.034;2022-08-01T01:18:32;18.70;99.90
31597;DHT22;18201;50.978;7.034;2022-08-01T01:19:41;18.70;99.90
31597;DHT22;18201;50.978;7.034;2022-08-01T01:20:49;18.70;99.90
31597;DHT22;18201;50.978;7.034;2022-08-01T01:22:14;18.70;99.90
31597;DHT22;18201;50.978;7.034;2022-08-01T01:23:29;18.70;99.90
31597;DHT22;18201;50.978;7.034;2022-08-01T01:24:39;18.80;99.90
31597;DHT22;18201;50.978;7.034;2022-08-01T01:25:54;18.70;99.90
31597;DHT22;18201;50.978;7.034;2022-08-01T01:27:08;18.70;99.90
31597;DHT22;18201;50.978;7.034;2022-08-01T01:28:17;18.80;99.90
31597;DHT22;18201;50.978;7.034;2022-08-01T01:29:27;18.80;99.90
31597;DHT22;18201;50.978;7.034;2022-08-01T01:30:29;18.70;99.90
31597;DHT22;18201;50.978;7.034;2022-08-01T01:31:39;18.70;99.90
31597;DHT22;18201;50.978;7.034;2022-08-01T01:32:48;18.80;99.90
31597;DHT22;18201;50.978;7.034;2022-08-01T01:33:51;18.70;99.90
31597;DHT22;18201;50.978;7.034;2022-08-01T01:34:55;18.70;99.90
31597;DHT22;18201;50.978;7.034;2022-08-01T01:35:59;18.70;99.90
31597;DHT22;18201;50.978;7.034;2022-08-01T01:37:06;18.70;99.90
31597;DHT22;18201;50.978;7.034;2022-08-01T01:38:17;18.70;99.90
31597;DHT22;18201;50.978;7.034;2022-08-01T01:39:20;18.70;99.90
31597;DHT22;18201;50.978;7.034;2022-08-01T01:40:24;18.70;99.90
31597;DHT22;18201;50.978;7.034;2022-08-01T01:41:27;18.80;99.90
31597;DHT22;18201;50.978;7.034;2022-08-01T01:42:30;18.80;99.90
31597;DHT22;18201;50.978;7.034;2022-08-01T01:43:33;18.80;99.90
31597;DHT22;18201;50.978;7.034;2022-08-01T01:44:38;18.80;99.90
31597;DHT22;18201;50.978;7.034;2022-08-01T01:45:40;18.80;99.90
31597;DHT22;18201;50.978;7.034;2022-08-01T01:46:45;18.80;99.90
31597;DHT22;18201;50.978;7.034;2022-08-01T01:47:48;18.70;99.90
31597;DHT22;18201;50.978;7.034;2022-08-01T01:48:52;18.80;99.90
31597;DHT22;18201;50.978;7.034;2022-08-01T01:49:55;18.80;99.90
31597;DHT22;18201;50.978;7.034;2022-08-01T01:50:59;18.80;99.90
31597;DHT22;18201;50.978;7.034;2022-08-01T01:52:05;18.80;99.90
31597;DHT22;18201;50.978;7.034;2022-08-01T01:53:10;18.80;99.90
31597;DHT22;18201;50.978;7.034;2022-08-01T01:54:12;18.80;99.90
31597;DHT22;18201;50.978;7.034;2022-08-01T01:55:15;18.80;99.90
31597;DHT22;18201;50.978;7.034;2022-08-01T01:56:19;18.80;99.90
31597;DHT22;18201;50.978;7.034;2022-08-01T01:57:22;18.80;99.90
31597;DHT22;18201;50.978;7.034;2022-08-01T01:58:24;18.80;99.90
31597;DHT22;18201;50.978;7.034;2022-08-01T01:59:30;18.80;99.90
31597;DHT22;18201;50.978;7.034;2022-08-01T02:00:34;18.70;99.90
31597;DHT22;18201;50.978;7.034;2022-08-01T02:01:38;18.80;99.90
31597;DHT22;18201;50.978;7.034;2022-08-01T02:02:39;18.80;99.90
31597;DHT22;18201;50.978;7.034;2022-08-01T02:03:42;18.80;99.90
31597;DHT22;18201;50.978;7.034;2022-08-01T02:04:45;18.80;99.90
31597;DHT22;18201;50.978;7.034;2022-08-01T02:05:48;18.80;99.90
31597;DHT22;18201;50.978;7.034;2022-08-01T02:06:51;18.80;99.90
31597;DHT22;18201;50.978;7.034;2022-08-01T02:07:55;18.80;99.90
31597;DHT22;18201;50.978;7.034;2022-08-01T02:08:56;18.80;99.90
31597;DHT22;18201;50.978;7.034;2022-08-01T02:10:00;18.80;99.90
31597;DHT22;18201;50.978;7.034;2022-08-01T02:11:02;18.80;99.90
31597;DHT22;18201;50.978;7.034;2022-08-01T02:12:20;18.90;99.90
31597;DHT22;18201;50.978;7.034;2022-08-01T02:13:22;18.90;99.90
31597;DHT22;18201;50.978;7.034;2022-08-01T02:14:25;18.80;99.90
31597;DHT22;18201;50.978;7.034;2022-08-01T02:15:30;18.80;99.90
31597;DHT22;18201;50.978;7.034;2022-08-01T02:16:36;18.80;99.90
31597;DHT22;18201;50.978;7.034;2022-08-01T02:17:44;18.80;99.90
31597;DHT22;18201;50.978;7.034;2022-08-01T02:18:49;18.90;99.90
31597;DHT22;18201;50.978;7.034;2022-08-01T02:19:50;18.80;99.90
31597;DHT22;18201;50.978;7.034;2022-08-01T02:20:52;18.80;99.90
31597;DHT22;18201;50.978;7.034;2022-08-01T02:21:57;18.90;99.90
31597;DHT22;18201;50.978;7.034;2022-08-01T02:23:05;18.80;99.90
31597;DHT22;18201;50.978;7.034;2022-08-01T02:24:12;18.80;99.90
31597;DHT22;18201;50.978;7.034;2022-08-01T02:25:20;18.80;99.90
31597;DHT22;18201;50.978;7.034;2022-08-01T02:26:23;18.80;99.90
31597;DHT22;18201;50.978;7.034;2022-08-01T02:27:28;18.80;99.90
31597;DHT22;18201;50.978;7.034;2022-08-01T02:28:35;18.80;99.90
31597;DHT22;18201;50.978;7.034;2022-08-01T02:29:41;18.80;99.90
31597;DHT22;18201;50.978;7.034;2022-08-01T02:30:46;18.80;99.90
31597;DHT22;18201;50.978;7.034;2022-08-01T02:31:51;18.80;99.90
31597;DHT22;18201;50.978;7.034;2022-08-01T02:33:00;18.80;99.90
31597;DHT22;18201;50.978;7.034;2022-08-01T02:34:09;18.90;99.90
31597;DHT22;18201;50.978;7.034;2022-08-01T02:35:13;18.90;99.90
31597;DHT22;18201;50.978;7.034;2022-08-01T02:36:19;18.90;99.90
31597;DHT22;18201;50.978;7.034;2022-08-01T02:37:21;18.90;99.90
31597;DHT22;18201;50.978;7.034;2022-08-01T02:38:27;18.90;99.90
31597;DHT22;18201;50.978;7.034;2022-08-01T02:39:30;18.90;99.90
31597;DHT22;18201;50.978;7.034;2022-08-01T02:40:35;18.90;99.90
31597;DHT22;18201;50.978;7.034;2022-08-01T02:41:40;18.90;99.90
31597;DHT22;18201;50.978;7.034;2022-08-01T02:42:45;18.90;99.90
31597;DHT22;18201;50.978;7.034;2022-08-01T02:43:50;18.90;99.90
31597;DHT22;18201;50.978;7.034;2022-08-01T02:44:54;18.90;99.90
31597;DHT22;18201;50.978;7.034;2022-08-01T02:46:03;18.90;99.90
31597;DHT22;18201;50.978;7.034;2022-08-01T02:47:07;18.90;99.90
31597;DHT22;18201;50.978;7.034;2022-08-01T02:48:14;18.90;99.90
31597;DHT22;18201;50.978;7.034;2022-08-01T02:49:18;18.90;99.90
31597;DHT22;18201;50.978;7.034;2022-08-01T02:50:20;18.90;99.90
31597;DHT22;18201;50.978;7.034;2022-08-01T02:51:23;18.90;99.90
31597;DHT22;18201;50.978;7.034;2022-08-01T02:52:27;18.90;99.90
31597;DHT22;18201;50.978;7.034;2022-08-01T02:53:32;18.90;99.90
31597;DHT22;18201;50.978;7.034;2022-08-01T02:54:37;18.90;99.90
31597;DHT22;18201;50.978;7.034;2022-08-01T02:55:40;18.90;99.90
31597;DHT22;18201;50.978;7.034;2022-08-01T02:56:44;18.90;99.90
31597;DHT22;18201;50.978;7.034;2022-08-01T02:57:49;18.90;99.90
31597;DHT22;18201;50.978;7.034;2022-08-01T02:58:52;18.90;99.90
31597;DHT22;18201;50.978;7.034;2022-08-01T02:59:55;18.80;99.90
31597;DHT22;18201;50.978;7.034;2022-08-01T03:00:59;18.90;99.90
31597;DHT22;18201;50.978;7.034;2022-08-01T03:02:01;18.90;99.90
31597;DHT22;18201;50.978;7.034;2022-08-01T03:03:07;18.90;99.90
31597;DHT22;18201;50.978;7.034;2022-08-01T03:04:09;18.90;99.90
31597;DHT22;18201;50.978;7.034;2022-08-01T03:05:12;18.90;99.90
31597;DHT22;18201;50.978;7.034;2022-08-01T03:06:16;18.90;99.90
31597;DHT22;18201;50.978;7.034;2022-08-01T03:07:18;18.90;99.90
31597;DHT22;18201;50.978;7.034;2022-08-01T03:08:24;18.90;99.90
31597;DHT22;18201;50.978;7.034;2022-08-01T03:09:26;18.90;99.90
31597;DHT22;18201;50.978;7.034;2022-08-01T03:10:31;19.00;99.90
31597;DHT22;18201;50.978;7.034;2022-08-01T03:11:33;19.00;99.90
31597;DHT22;18201;50.978;7.034;2022-08-01T03:12:36;19.00;99.90
31597;DHT22;18201;50.978;7.034;2022-08-01T03:13:38;19.00;99.90
31597;DHT22;18201;50.978;7.034;2022-08-01T03:14:45;19.00;99.90
31597;DHT22;18201;50.978;7.034;2022-08-01T03:15:48;19.00;99.90
31597;DHT22;18201;50.978;7.034;2022-08-01T03:16:51;19.00;99.90
31597;DHT22;18201;50.978;7.034;2022-08-01T03:17:54;19.10;99.90
31597;DHT22;18201;50.978;7.034;2022-08-01T03:18:58;19.10;99.90
31597;DHT22;18201;50.978;7.034;2022-08-01T03:20:03;19.10;99.90
31597;DHT22;18201;50.978;7.034;2022-08-01T03:21:07;19.10;99.90
31597;DHT22;18201;50.978;7.034;2022-08-01T03:22:11;19.10;99.90
31597;DHT22;18201;50.978;7.034;2022-08-01T03:23:14;19.10;99.90
31597;DHT22;18201;50.978;7.034;2022-08-01T03:24:16;19.10;99.90
31597;DHT22;18201;50.978;7.034;2022-08-01T03:25:20;19.10;99.90
31597;DHT22;18201;50.978;7.034;2022-08-01T03:26:23;19.10;99.90
31597;DHT22;18201;50.978;7.034;2022-08-01T03:27:26;19.20;99.90
31597;DHT22;18201;50.978;7.034;2022-08-01T03:28:29;19.20;99.90
31597;DHT22;18201;50.978;7.034;2022-08-01T03:29:32;19.20;99.90
31597;DHT22;18201;50.978;7.034;2022-08-01T03:30:36;19.10;99.90
31597;DHT22;18201;50.978;7.034;2022-08-01T03:31:40;19.10;99.90
31597;DHT22;18201;50.978;7.034;2022-08-01T03:32:44;19.10;99.90
31597;DHT22;18201;50.978;7.034;2022-08-01T03:33:48;19.20;99.90
31597;DHT22;18201;50.978;7.034;2022-08-01T03:34:51;19.20;99.90
31597;DHT22;18201;50.978;7.034;2022-08-01T03:35:54;19.20;99.90
31597;DHT22;18201;50.978;7.034;2022-08-01T03:36:59;19.20;99.90
31597;DHT22;18201;50.978;7.034;2022-08-01T03:38:03;19.20;99.90
31597;DHT22;18201;50.978;7.034;2022-08-01T03:39:07;19.20;99.90
31597;DHT22;18201;50.978;7.034;2022-08-01T03:40:13;19.20;99.90
31597;DHT22;18201;50.978;7.034;2022-08-01T03:41:19;19.20;99.90
31597;DHT22;18201;50.978;7.034;2022-08-01T03:42:27;19.20;99.90
31597;DHT22;18201;50.978;7.034;2022-08-01T03:43:36;19.20;99.90
31597;DHT22;18201;50.978;7.034;2022-08-01T03:44:41;19.20;99.90
31597;DHT22;18201;50.978;7.034;2022-08-01T03:45:49;19.20;99.90
31597;DHT22;18201;50.978;7.034;2022-08-01T03:46:56;19.20;99.90
31597;DHT22;18201;50.978;7.034;2022-08-01T03:48:00;19.20;99.90
31597;DHT22;18201;50.978;7.034;2022-08-01T03:49:07;19.20;99.90
31597;DHT22;18201;50.978;7.034;2022-08-01T03:50:14;19.20;99.90
31597;DHT22;18201;50.978;7.034;2022-08-01T03:51:18;19.20;99.90
31597;DHT22;18201;50.978;7.034;2022-08-01T03:52:20;19.20;99.90
31597;DHT22;18201;50.978;7.034;2022-08-01T03:53:25;19.20;99.90
31597;DHT22;18201;50.978;7.034;2022-08-01T03:54:30;19.20;99.90
31597;DHT22;18201;50.978;7.034;2022-08-01T03:55:36;19.20;99.90
31597;DHT22;18201;50.978;7.034;2022-08-01T03:56:38;19.20;99.90
31597;DHT22;18201;50.978;7.034;2022-08-01T03:57:44;19.20;99.90
31597;DHT22;18201;50.978;7.034;2022-08-01T03:58:46;19.20;99.90
31597;DHT22;18201;50.978;7.034;2022-08-01T03:59:49;19.20;99.90
31597;DHT22;18201;50.978;7.034;2022-08-01T04:00:50;19.20;99.90
31597;DHT22;18201;50.978;7.034;2022-08-01T04:01:53;19.20;99.90
31597;DHT22;18201;50.978;7.034;2022-08-01T04:02:58;19.20;99.90
31597;DHT22;18201;50.978;7.034;2022-08-01T04:04:00;19.20;99.90
31597;DHT22;18201;50.978;7.034;2022-08-01T04:05:03;19.20;99.90
31597;DHT22;18201;50.978;7.034;2022-08-01T04:06:07;19.20;99.90
31597;DHT22;18201;50.978;7.034;2022-08-01T04:07:23;19.20;99.90
31597;DHT22;18201;50.978;7.034;2022-08-01T04:08:34;19.20;99.90
31597;DHT22;18201;50.978;7.034;2022-08-01T04:09:36;19.20;99.90
31597;DHT22;18201;50.978;7.034;2022-08-01T04:10:38;19.30;99.90
31597;DHT22;18201;50.978;7.034;2022-08-01T04:11:39;19.30;99.90
31597;DHT22;18201;50.978;7.034;2022-08-01T04:12:41;19.30;99.90
31597;DHT22;18201;50.978;7.034;2022-08-01T04:13:42;19.20;99.90
31597;DHT22;18201;50.978;7.034;2022-08-01T04:14:44;19.20;99.90
31597;DHT22;18201;50.978;7.034;2022-08-01T04:15:46;19.20;99.90
31597;DHT22;18201;50.978;7.034;2022-08-01T04:16:48;19.20;99.90
31597;DHT22;18201;50.978;7.034;2022-08-01T04:17:49;19.20;99.90
31597;DHT22;18201;50.978;7.034;2022-08-01T04:18:50;19.20;99.90
31597;DHT22;18201;50.978;7.034;2022-08-01T04:19:53;19.30;99.90
31597;DHT22;18201;50.978;7.034;2022-08-01T04:20:53;19.20;99.90
31597;DHT22;18201;50.978;7.034;2022-08-01T04:21:57;19.20;99.90
31597;DHT22;18201;50.978;7.034;2022-08-01T04:22:58;19.20;99.90
31597;DHT22;18201;50.978;7.034;2022-08-01T04:24:03;19.30;99.90
31597;DHT22;18201;50.978;7.034;2022-08-01T04:25:09;19.20;99.90
31597;DHT22;18201;50.978;7.034;2022-08-01T04:26:13;19.20;99.90
31597;DHT22;18201;50.978;7.034;2022-08-01T04:27:21;19.30;99.90
31597;DHT22;18201;50.978;7.034;2022-08-01T04:28:25;19.30;99.90
31597;DHT22;18201;50.978;7.034;2022-08-01T04:29:26;19.30;99.90
31597;DHT22;18201;50.978;7.034;2022-08-01T04:30:31;19.30;99.90
31597;DHT22;18201;50.978;7.034;2022-08-01T04:31:36;19.30;99.90
31597;DHT22;18201;50.978;7.034;2022-08-01T04:32:38;19.30;99.90
31597;DHT22;18201;50.978;7.034;2022-08-01T04:33:44;19.30;99.90
31597;DHT22;18201;50.978;7.034;2022-08-01T04:34:48;19.30;99.90
31597;DHT22;18201;50.978;7.034;2022-08-01T04:35:50;19.30;99.90
31597;DHT22;18201;50.978;7.034;2022-08-01T04:36:56;19.30;99.90
31597;DHT22;18201;50.978;7.034;2022-08-01T04:37:59;19.30;99.90
31597;DHT22;18201;50.978;7.034;2022-08-01T04:39:04;19.30;99.90
31597;DHT22;18201;50.978;7.034;2022-08-01T04:40:06;19.30;99.90
31597;DHT22;18201;50.978;7.034;2022-08-01T04:41:12;19.30;99.90
31597;DHT22;18201;50.978;7.034;2022-08-01T04:42:14;19.30;99.90
31597;DHT22;18201;50.978;7.034;2022-08-01T04:43:16;19.30;99.90
31597;DHT22;18201;50.978;7.034;2022-08-01T04:44:25;19.30;99.90
31597;DHT22;18201;50.978;7.034;2022-08-01T04:45:28;19.30;99.90
31597;DHT22;18201;50.978;7.034;2022-08-01T04:46:31;19.30;99.90
31597;DHT22;18201;50.978;7.034;2022-08-01T04:47:34;19.30;99.90
31597;DHT22;18201;50.978;7.034;2022-08-01T04:48:37;19.40;99.90
31597;DHT22;18201;50.978;7.034;2022-08-01T04:49:39;19.40;99.90
31597;DHT22;18201;50.978;7.034;2022-08-01T04:50:42;19.40;99.90
31597;DHT22;18201;50.978;7.034;2022-08-01T04:51:50;19.40;99.90
31597;DHT22;18201;50.978;7.034;2022-08-01T04:52:57;19.40;99.90
31597;DHT22;18201;50.978;7.034;2022-08-01T04:53:58;19.40;99.90
31597;DHT22;18201;50.978;7.034;2022-08-01T04:55:01;19.30;99.90
31597;DHT22;18201;50.978;7.034;2022-08-01T04:56:03;19.40;99.90
31597;DHT22;18201;50.978;7.034;2022-08-01T04:57:05;19.40;99.90
31597;DHT22;18201;50.978;7.034;2022-08-01T04:58:07;19.40;99.90
31597;DHT22;18201;50.978;7.034;2022-08-01T04:59:09;19.40;99.90
31597;DHT22;18201;50.978;7.034;2022-08-01T05:00:29;19.40;99.90
31597;DHT22;18201;50.978;7.034;2022-08-01T05:01:30;19.40;99.90
31597;DHT22;18201;50.978;7.034;2022-08-01T05:02:31;19.40;99.90
31597;DHT22;18201;50.978;7.034;2022-08-01T05:03:34;19.40;99.90
31597;DHT22;18201;50.978;7.034;2022-08-01T05:04:35;19.40;99.90
31597;DHT22;18201;50.978;7.034;2022-08-01T05:05:37;19.40;99.90
31597;DHT22;18201;50.978;7.034;2022-08-01T05:06:39;19.40;99.90
31597;DHT22;18201;50.978;7.034;2022-08-01T05:07:40;19.50;99.90
31597;DHT22;18201;50.978;7.034;2022-08-01T05:08:43;19.40;99.90
31597;DHT22;18201;50.978;7.034;2022-08-01T05:09:56;19.50;99.90
31597;DHT22;18201;50.978;7.034;2022-08-01T05:11:04;19.50;99.90
31597;DHT22;18201;50.978;7.034;2022-08-01T05:12:06;19.50;99.90
31597;DHT22;18201;50.978;7.034;2022-08-01T05:13:08;19.50;99.90
31597;DHT22;18201;50.978;7.034;2022-08-01T05:14:09;19.50;99.90
31597;DHT22;18201;50.978;7.034;2022-08-01T05:15:11;19.50;99.90
31597;DHT22;18201;50.978;7.034;2022-08-01T05:16:15;19.50;99.90
31597;DHT22;18201;50.978;7.034;2022-08-01T05:17:17;19.50;99.90
31597;DHT22;18201;50.978;7.034;2022-08-01T05:18:18;19.50;99.90
31597;DHT22;18201;50.978;7.034;2022-08-01T05:19:20;19.50;99.90
31597;DHT22;18201;50.978;7.034;2022-08-01T05:20:22;19.50;99.90
31597;DHT22;18201;50.978;7.034;2022-08-01T05:21:23;19.50;99.90
31597;DHT22;18201;50.978;7.034;2022-08-01T05:22:24;19.50;99.90
31597;DHT22;18201;50.978;7.034;2022-08-01T05:23:27;19.50;99.90
31597;DHT22;18201;50.978;7.034;2022-08-01T05:24:31;19.50;99.90
31597;DHT22;18201;50.978;7.034;2022-08-01T05:25:32;19.50;99.90
31597;DHT22;18201;50.978;7.034;2022-08-01T05:26:34;19.50;99.90
31597;DHT22;18201;50.978;7.034;2022-08-01T05:27:35;19.50;99.90
31597;DHT22;18201;50.978;7.034;2022-08-01T05:28:40;19.50;99.90
31597;DHT22;18201;50.978;7.034;2022-08-01T05:29:41;19.50;99.90
31597;DHT22;18201;50.978;7.034;2022-08-01T05:30:43;19.50;99.90
31597;DHT22;18201;50.978;7.034;2022-08-01T05:31:44;19.50;99.90
31597;DHT22;18201;50.978;7.034;2022-08-01T05:32:46;19.60;99.90
31597;DHT22;18201;50.978;7.034;2022-08-01T05:33:46;19.60;99.90
31597;DHT22;18201;50.978;7.034;2022-08-01T05:34:48;19.60;99.90
31597;DHT22;18201;50.978;7.034;2022-08-01T05:35:49;19.60;99.90
31597;DHT22;18201;50.978;7.034;2022-08-01T05:36:51;19.60;99.90
31597;DHT22;18201;50.978;7.034;2022-08-01T05:37:52;19.60;99.90
31597;DHT22;18201;50.978;7.034;2022-08-01T05:38:54;19.70;99.90
31597;DHT22;18201;50.978;7.034;2022-08-01T05:39:56;19.70;99.90
31597;DHT22;18201;50.978;7.034;2022-08-01T05:40:58;19.70;99.90
31597;DHT22;18201;50.978;7.034;2022-08-01T05:41:59;19.70;99.90
31597;DHT22;18201;50.978;7.034;2022-08-01T05:43:01;19.80;99.90
31597;DHT22;18201;50.978;7.034;2022-08-01T05:44:02;19.80;99.90
31597;DHT22;18201;50.978;7.034;2022-08-01T05:45:05;19.80;99.90
31597;DHT22;18201;50.978;7.034;2022-08-01T05:46:06;19.70;99.90
31597;DHT22;18201;50.978;7.034;2022-08-01T05:47:08;19.70;99.90
31597;DHT22;18201;50.978;7.034;2022-08-01T05:48:09;19.60;99.90
31597;DHT22;18201;50.978;7.034;2022-08-01T05:49:11;19.60;99.90
31597;DHT22;18201;50.978;7.034;2022-08-01T05:50:12;19.50;99.90
31597;DHT22;18201;50.978;7.034;2022-08-01T05:51:14;19.50;99.90
31597;DHT22;18201;50.978;7.034;2022-08-01T05:52:15;19.40;99.90
31597;DHT22;18201;50.978;7.034;2022-08-01T05:53:17;19.40;99.90
31597;DHT22;18201;50.978;7.034;2022-08-01T05:54:18;19.30;99.90
31597;DHT22;18201;50.978;7.034;2022-08-01T05:55:21;19.30;99.90
31597;DHT22;18201;50.978;7.034;2022-08-01T05:56:23;19.20;99.90
31597;DHT22;18201;50.978;7.034;2022-08-01T05:57:24;19.20;99.90
31597;DHT22;18201;50.978;7.034;2022-08-01T05:58:26;19.20;99.90
31597;DHT22;18201;50.978;7.034;2022-08-01T05:59:27;19.20;99.90
31597;DHT22;18201;50.978;7.034;2022-08-01T06:00:28;19.20;99.90
31597;DHT22;18201;50.978;7.034;2022-08-01T06:01:30;19.10;99.90
31597;DHT22;18201;50.978;7.034;2022-08-01T06:02:31;19.10;99.90
31597;DHT22;18201;50.978;7.034;2022-08-01T06:03:32;19.10;99.90
31597;DHT22;18201;50.978;7.034;2022-08-01T06:04:34;19.10;99.90
31597;DHT22;18201;50.978;7.034;2022-08-01T06:05:36;19.10;99.90
31597;DHT22;18201;50.978;7.034;2022-08-01T06:06:37;19.10;99.90
31597;DHT22;18201;50.978;7.034;2022-08-01T06:07:39;19.10;99.90
31597;DHT22;18201;50.978;7.034;2022-08-01T06:08:41;19.10;99.90
31597;DHT22;18201;50.978;7.034;2022-08-01T06:09:43;19.00;99.90
31597;DHT22;18201;50.978;7.034;2022-08-01T06:10:45;19.10;99.90
31597;DHT22;18201;50.978;7.034;2022-08-01T06:11:47;19.10;99.90
31597;DHT22;18201;50.978;7.034;2022-08-01T06:12:48;19.10;99.90
31597;DHT22;18201;50.978;7.034;2022-08-01T06:13:49;19.10;99.90
31597;DHT22;18201;50.978;7.034;2022-08-01T06:14:50;19.10;99.90
31597;DHT22;18201;50.978;7.034;2022-08-01T06:15:52;19.10;99.90
31597;DHT22;18201;50.978;7.034;2022-08-01T06:16:54;19.10;99.90
31597;DHT22;18201;50.978;7.034;2022-08-01T06:17:55;19.10;99.90
31597;DHT22;18201;50.978;7.034;2022-08-01T06:18:57;19.10;99.90
31597;DHT22;18201;50.978;7.034;2022-08-01T06:19:59;19.10;99.90
31597;DHT22;18201;50.978;7.034;2022-08-01T06:21:00;19.10;99.90
31597;DHT22;18201;50.978;7.034;2022-08-01T06:22:02;19.20;99.90
31597;DHT22;18201;50.978;7.034;2022-08-01T06:23:03;19.20;99.90
31597;DHT22;18201;50.978;7.034;2022-08-01T06:24:05;19.20;99.90
31597;DHT22;18201;50.978;7.034;2022-08-01T06:25:08;19.30;99.90
31597;DHT22;18201;50.978;7.034;2022-08-01T06:26:10;19.30;99.90
31597;DHT22;18201;50.978;7.034;2022-08-01T06:27:12;19.40;99.90
31597;DHT22;18201;50.978;7.034;2022-08-01T06:28:13;19.30;99.90
31597;DHT22;18201;50.978;7.034;2022-08-01T06:29:15;19.40;99.90
31597;DHT22;18201;50.978;7.034;2022-08-01T06:30:17;19.40;99.90
31597;DHT22;18201;50.978;7.034;2022-08-01T06:31:19;19.50;99.90
31597;DHT22;18201;50.978;7.034;2022-08-01T06:32:20;19.50;99.90
31597;DHT22;18201;50.978;7.034;2022-08-01T06:33:23;19.50;99.90
31597;DHT22;18201;50.978;7.034;2022-08-01T06:34:26;19.60;99.90
31597;DHT22;18201;50.978;7.034;2022-08-01T06:35:27;19.60;99.90
31597;DHT22;18201;50.978;7.034;2022-08-01T06:36:33;19.60;99.90
31597;DHT22;18201;50.978;7.034;2022-08-01T06:37:37;19.70;99.90
31597;DHT22;18201;50.978;7.034;2022-08-01T06:38:38;19.70;99.90
31597;DHT22;18201;50.978;7.034;2022-08-01T06:39:39;19.80;99.90
31597;DHT22;18201;50.978;7.034;2022-08-01T06:40:41;19.90;99.90
31597;DHT22;18201;50.978;7.034;2022-08-01T06:41:44;19.90;99.90